createdAt,value
2022-12-06T00:01:48.057Z,98526.13
2022-12-06T00:04:15.494Z,98521.25
2022-12-06T00:06:43.806Z,98527.66
2022-12-06T00:09:22.106Z,98526.56
2022-12-06T00:11:48.591Z,98518.53
2022-12-06T00:14:15.130Z,98519.88
2022-12-06T00:16:41.680Z,98520.63
2022-12-06T00:19:08.262Z,98513.13
2022-12-06T00:21:35.951Z,98515.50
2022-12-06T00:24:07.302Z,98511.22
2022-12-06T00:26:38.140Z,98507.97
2022-12-06T00:29:04.864Z,98499.72
2022-12-06T00:31:32.028Z,98503.69
2022-12-06T00:33:58.540Z,98503.38
2022-12-06T00:36:29.289Z,98502.84
2022-12-06T00:38:55.845Z,98497.22
2022-12-06T00:41:23.749Z,98500.41
2022-12-06T00:43:51.010Z,98494.50
2022-12-06T00:46:28.108Z,98493.97
2022-12-06T00:48:55.219Z,98501.16
2022-12-06T00:51:22.040Z,98496.88
2022-12-06T00:53:48.674Z,98494.22
2022-12-06T00:56:15.531Z,98493.69
2022-12-06T00:58:42.312Z,98498.19
2022-12-06T01:01:12.411Z,98493.94
2022-12-06T01:03:39.685Z,98492.31
2022-12-06T01:06:07.781Z,98496.03
2022-12-06T01:08:34.525Z,98493.91
2022-12-06T01:11:01.065Z,98497.84
2022-12-06T01:13:27.605Z,98496.25
2022-12-06T01:15:54.255Z,98506.34
2022-12-06T01:18:21.276Z,98504.44
2022-12-06T01:20:48.048Z,98501.50
2022-12-06T01:23:14.904Z,98503.56
2022-12-06T01:25:53.831Z,98491.81
2022-12-06T01:28:20.361Z,98498.44
2022-12-06T01:30:46.997Z,98498.69
2022-12-06T01:33:13.490Z,98497.53
2022-12-06T01:35:41.333Z,98492.16
2022-12-06T01:38:08.615Z,98499.34
2022-12-06T01:40:39.459Z,98499.66
2022-12-06T01:43:06.465Z,98491.72
2022-12-06T01:45:32.921Z,98485.34
2022-12-06T01:47:59.414Z,98492.03
2022-12-06T01:50:28.120Z,98486.69
2022-12-06T01:53:06.693Z,98494.94
2022-12-06T01:55:35.436Z,98487.75
2022-12-06T01:58:07.732Z,98485.09
2022-12-06T02:00:34.198Z,98483.47
2022-12-06T02:03:00.727Z,98485.34
2022-12-06T02:05:27.277Z,98473.66
2022-12-06T02:07:53.809Z,98478.97
2022-12-06T02:10:20.323Z,98472.81
2022-12-06T02:12:55.057Z,98471.22
2022-12-06T02:15:21.530Z,98468.34
2022-12-06T02:17:56.880Z,98478.16
2022-12-06T02:20:29.294Z,98468.56
2022-12-06T02:23:27.236Z,98464.56
2022-12-06T02:26:18.517Z,98462.72
2022-12-06T02:29:00.063Z,98468.25
2022-12-06T02:31:42.894Z,98465.06
2022-12-06T02:34:20.017Z,98457.03
2022-12-06T02:36:51.306Z,98465.00
2022-12-06T02:39:58.123Z,98453.28
2022-12-06T02:42:27.147Z,98459.66
2022-12-06T02:44:54.724Z,98465.47
2022-12-06T02:47:23.514Z,98454.28
2022-12-06T02:49:50.288Z,98448.16
2022-12-06T02:52:18.037Z,98459.28
2022-12-06T02:54:45.128Z,98452.91
2022-12-06T02:57:11.626Z,98451.06
2022-12-06T02:59:38.068Z,98457.19
2022-12-06T03:02:05.524Z,98457.19
2022-12-06T03:04:46.184Z,98448.16
2022-12-06T03:07:27.914Z,98451.38
2022-12-06T03:10:25.311Z,98443.13
2022-12-06T03:13:01.862Z,98436.25
2022-12-06T03:15:40.965Z,98450.34
2022-12-06T03:18:16.868Z,98445.88
2022-12-06T03:20:47.243Z,98443.19
2022-12-06T03:23:15.668Z,98451.97
2022-12-06T03:25:42.732Z,98442.38
2022-12-06T03:28:09.830Z,98441.03
2022-12-06T03:30:36.351Z,98447.16
2022-12-06T03:33:02.905Z,98447.91
2022-12-06T03:35:31.322Z,98452.97
2022-12-06T03:38:03.085Z,98456.38
2022-12-06T03:40:30.688Z,98449.19
2022-12-06T03:42:57.176Z,98436.69
2022-12-06T03:45:26.848Z,98443.06
2022-12-06T03:47:56.466Z,98442.00
2022-12-06T03:50:27.540Z,98437.72
2022-12-06T03:52:54.468Z,98440.88
2022-12-06T03:55:21.112Z,98439.03
2022-12-06T03:57:47.571Z,98438.22
2022-12-06T04:00:14.789Z,98445.16
2022-12-06T04:02:41.345Z,98435.56
2022-12-06T04:05:08.111Z,98439.84
2022-12-06T04:07:34.650Z,98436.13
2022-12-06T04:10:03.965Z,98433.44
2022-12-06T04:12:52.475Z,98433.72
2022-12-06T04:15:19.479Z,98431.84
2022-12-06T04:18:04.596Z,98433.72
2022-12-06T04:20:51.160Z,98432.34
2022-12-06T04:23:18.285Z,98428.34
2022-12-06T04:25:44.736Z,98421.41
2022-12-06T04:28:29.761Z,98429.63
2022-12-06T04:31:18.633Z,98429.09
2022-12-06T04:34:07.100Z,98418.69
2022-12-06T04:36:51.956Z,98418.97
2022-12-06T04:39:21.145Z,98421.06
2022-12-06T04:42:07.128Z,98415.75
2022-12-06T04:44:33.577Z,98410.66
2022-12-06T04:47:00.440Z,98409.88
2022-12-06T04:49:26.945Z,98421.31
2022-12-06T04:51:54.440Z,98424.22
2022-12-06T04:54:21.721Z,98419.97
2022-12-06T04:56:48.177Z,98422.31
2022-12-06T04:59:14.763Z,98429.47
2022-12-06T05:01:41.228Z,98417.47
2022-12-06T05:04:07.782Z,98423.06
2022-12-06T05:06:34.419Z,98419.84
2022-12-06T05:09:00.895Z,98424.13
2022-12-06T05:11:27.632Z,98417.19
2022-12-06T05:13:54.076Z,98421.47
2022-12-06T05:16:20.620Z,98419.84
2022-12-06T05:18:47.105Z,98414.28
2022-12-06T05:21:17.980Z,98412.69
2022-12-06T05:23:44.498Z,98420.66
2022-12-06T05:26:15.748Z,98419.59
2022-12-06T05:28:42.678Z,98411.06
2022-12-06T05:31:09.302Z,98413.16
2022-12-06T05:33:36.162Z,98417.94
2022-12-06T05:36:12.909Z,98406.47
2022-12-06T05:38:39.414Z,98404.88
2022-12-06T05:41:06.592Z,98408.84
2022-12-06T05:43:33.147Z,98407.81
2022-12-06T05:45:59.771Z,98401.69
2022-12-06T05:48:26.400Z,98407.00
2022-12-06T05:50:53.700Z,98399.25
2022-12-06T05:53:20.436Z,98400.28
2022-12-06T05:55:46.957Z,98396.84
2022-12-06T05:58:13.420Z,98400.53
2022-12-06T06:00:39.900Z,98399.75
2022-12-06T06:03:06.519Z,98395.22
2022-12-06T06:05:33.101Z,98391.50
2022-12-06T06:08:00.055Z,98400.88
2022-12-06T06:10:26.576Z,98400.09
2022-12-06T06:12:53.083Z,98391.50
2022-12-06T06:15:19.529Z,98397.63
2022-12-06T06:17:46.057Z,98389.13
2022-12-06T06:20:13.787Z,98398.16
2022-12-06T06:22:40.544Z,98397.34
2022-12-06T06:25:07.389Z,98397.84
2022-12-06T06:27:36.945Z,98391.41
2022-12-06T06:30:08.372Z,98400.50
2022-12-06T06:32:35.154Z,98400.75
2022-12-06T06:35:01.764Z,98403.16
2022-12-06T06:37:28.231Z,98400.81
2022-12-06T06:39:54.727Z,98400.53
2022-12-06T06:42:21.570Z,98411.72
2022-12-06T06:44:48.087Z,98407.00
2022-12-06T06:47:14.810Z,98410.19
2022-12-06T06:49:41.323Z,98410.19
2022-12-06T06:52:07.846Z,98413.66
2022-12-06T06:54:34.339Z,98410.78
2022-12-06T06:57:02.314Z,98408.34
2022-12-06T06:59:28.770Z,98407.53
2022-12-06T07:01:55.297Z,98406.75
2022-12-06T07:04:22.490Z,98405.41
2022-12-06T07:06:48.977Z,98412.53
2022-12-06T07:09:15.451Z,98409.88
2022-12-06T07:11:42.293Z,98414.38
2022-12-06T07:14:08.797Z,98416.22
2022-12-06T07:16:35.368Z,98413.84
2022-12-06T07:19:06.264Z,98420.75
2022-12-06T07:21:35.407Z,98406.66
2022-12-06T07:24:01.892Z,98415.69
2022-12-06T07:26:29.036Z,98416.50
2022-12-06T07:28:57.725Z,98421.25
2022-12-06T07:31:25.959Z,98421.16
2022-12-06T07:33:54.214Z,98433.91
2022-12-06T07:36:22.654Z,98428.59
2022-12-06T07:38:50.277Z,98430.94
2022-12-06T07:41:35.404Z,98437.06
2022-12-06T07:44:20.704Z,98430.94
2022-12-06T07:46:47.306Z,98430.41
2022-12-06T07:49:17.349Z,98425.41
2022-12-06T07:51:44.430Z,98424.72
2022-12-06T07:54:10.972Z,98432.78
2022-12-06T07:56:37.613Z,98430.53
2022-12-06T07:59:04.066Z,98435.44
2022-12-06T08:01:30.582Z,98425.13
2022-12-06T08:04:01.993Z,98428.88
2022-12-06T08:06:28.473Z,98426.50
2022-12-06T08:08:54.937Z,98438.41
2022-12-06T08:11:22.703Z,98439.22
2022-12-06T08:13:49.364Z,98438.78
2022-12-06T08:16:15.869Z,98442.75
2022-12-06T08:18:42.356Z,98445.59
2022-12-06T08:21:09.334Z,98441.34
2022-12-06T08:23:35.889Z,98457.53
2022-12-06T08:26:07.293Z,98451.66
2022-12-06T08:28:34.063Z,98450.84
2022-12-06T08:31:04.670Z,98454.88
2022-12-06T08:33:32.526Z,98461.00
2022-12-06T08:35:58.982Z,98461.47
2022-12-06T08:38:25.466Z,98464.19
2022-12-06T08:40:51.928Z,98459.88
2022-12-06T08:43:18.396Z,98462.78
2022-12-06T08:45:44.892Z,98454.47
2022-12-06T08:48:11.818Z,98457.22
2022-12-06T08:50:38.636Z,98454.63
2022-12-06T08:53:05.406Z,98456.84
2022-12-06T08:55:31.859Z,98454.50
2022-12-06T08:57:58.331Z,98459.44
2022-12-06T09:00:24.872Z,98458.22
2022-12-06T09:02:51.384Z,98468.91
2022-12-06T09:05:17.827Z,98468.16
2022-12-06T09:07:44.327Z,98462.63
2022-12-06T09:10:11.241Z,98465.00
2022-12-06T09:12:37.709Z,98468.53
2022-12-06T09:15:04.673Z,98462.66
2022-12-06T09:17:31.177Z,98468.22
2022-12-06T09:20:00.842Z,98474.84
2022-12-06T09:22:31.847Z,98473.38
2022-12-06T09:24:58.548Z,98476.09
2022-12-06T09:27:25.116Z,98474.50
2022-12-06T09:29:51.586Z,98471.03
2022-12-06T09:32:18.050Z,98473.97
2022-12-06T09:34:44.775Z,98467.63
2022-12-06T09:37:12.016Z,98464.41
2022-12-06T09:39:47.301Z,98455.09
2022-12-06T09:42:48.037Z,98467.41
2022-12-06T09:45:46.653Z,98465.59
2022-12-06T09:48:38.114Z,98460.81
2022-12-06T09:51:41.721Z,98461.88
2022-12-06T09:54:38.871Z,98464.53
2022-12-06T09:57:26.572Z,98459.22
2022-12-06T10:00:11.607Z,98458.69
2022-12-06T10:02:48.553Z,98455.47
2022-12-06T10:05:36.311Z,98459.78
2022-12-06T10:08:31.077Z,98457.44
2022-12-06T10:11:12.521Z,98455.13
2022-12-06T10:14:03.738Z,98453.00
2022-12-06T10:16:40.897Z,98450.00
2022-12-06T10:19:44.577Z,98452.72
2022-12-06T10:22:26.126Z,98449.31
2022-12-06T10:25:12.406Z,98445.91
2022-12-06T10:27:40.476Z,98435.84
2022-12-06T10:30:10.560Z,98434.47
2022-12-06T10:32:48.601Z,98422.25
2022-12-06T10:35:41.689Z,98420.88
2022-12-06T10:38:08.042Z,98429.41
2022-12-06T10:40:37.356Z,98418.72
2022-12-06T10:43:18.137Z,98418.16
2022-12-06T10:46:09.711Z,98417.88
2022-12-06T10:48:43.727Z,98416.53
2022-12-06T10:51:15.248Z,98414.94
2022-12-06T10:53:45.909Z,98416.50
2022-12-06T10:56:20.992Z,98420.75
2022-12-06T10:58:59.835Z,98422.06
2022-12-06T11:01:28.464Z,98417.00
2022-12-06T11:04:04.390Z,98424.44
2022-12-06T11:06:33.764Z,98423.34
2022-12-06T11:09:29.422Z,98420.66
2022-12-06T11:11:55.946Z,98427.25
2022-12-06T11:14:26.660Z,98420.59
2022-12-06T11:17:04.146Z,98422.69
2022-12-06T11:19:34.489Z,98425.38
2022-12-06T11:22:22.999Z,98422.41
2022-12-06T11:25:06.288Z,98419.44
2022-12-06T11:27:34.747Z,98420.50
2022-12-06T11:30:08.989Z,98416.47
2022-12-06T11:32:35.439Z,98415.38
2022-12-06T11:35:01.977Z,98413.22
2022-12-06T11:37:28.825Z,98413.72
2022-12-06T11:40:28.657Z,98410.75
2022-12-06T11:42:55.115Z,98408.63
2022-12-06T11:45:26.442Z,98410.72
2022-12-06T11:47:56.453Z,98412.84
2022-12-06T11:50:23.342Z,98409.66
2022-12-06T11:52:57.737Z,98416.09
2022-12-06T11:55:26.782Z,98409.22
2022-12-06T11:57:59.306Z,98409.28
2022-12-06T12:00:25.818Z,98412.78
2022-12-06T12:02:54.255Z,98413.34
2022-12-06T12:05:21.965Z,98409.09
2022-12-06T12:07:54.497Z,98415.72
2022-12-06T12:10:47.481Z,98405.03
2022-12-06T12:13:32.617Z,98407.16
2022-12-06T12:16:01.184Z,98407.66
2022-12-06T12:18:35.813Z,98410.31
2022-12-06T12:21:02.792Z,98414.84
2022-12-06T12:23:42.489Z,98410.31
2022-12-06T12:26:11.862Z,98410.56
2022-12-06T12:28:38.789Z,98400.16
2022-12-06T12:31:26.581Z,98411.91
2022-12-06T12:34:29.020Z,98405.25
2022-12-06T12:37:00.812Z,98407.03
2022-12-06T12:39:32.002Z,98410.53
2022-12-06T12:41:58.563Z,98400.38
2022-12-06T12:44:38.089Z,98402.78
2022-12-06T12:47:14.582Z,98402.47
2022-12-06T12:49:41.185Z,98400.09
2022-12-06T12:52:29.440Z,98392.88
2022-12-06T12:55:14.857Z,98394.41
2022-12-06T12:57:42.046Z,98392.81
2022-12-06T13:00:14.453Z,98391.22
2022-12-06T13:02:40.977Z,98386.16
2022-12-06T13:05:33.432Z,98388.25
2022-12-06T13:08:06.741Z,98387.19
2022-12-06T13:10:37.514Z,98384.53
2022-12-06T13:13:10.648Z,98390.41
2022-12-06T13:15:47.014Z,98385.09
2022-12-06T13:18:21.068Z,98386.97
2022-12-06T13:20:47.663Z,98392.03
2022-12-06T13:23:16.074Z,98388.56
2022-12-06T13:25:43.417Z,98382.94
2022-12-06T13:28:15.823Z,98379.25
2022-12-06T13:30:42.353Z,98379.25
2022-12-06T13:33:21.355Z,98381.72
2022-12-06T13:36:01.052Z,98379.91
2022-12-06T13:38:34.790Z,98376.00
2022-12-06T13:41:02.135Z,98375.31
2022-12-06T13:43:28.501Z,98382.28
2022-12-06T13:46:07.405Z,98380.47
2022-12-06T13:48:37.173Z,98385.00
2022-12-06T13:51:10.863Z,98386.31
2022-12-06T13:54:17.521Z,98383.94
2022-12-06T13:56:44.034Z,98384.94
2022-12-06T13:59:15.062Z,98386.75
2022-12-06T14:01:48.939Z,98390.22
2022-12-06T14:06:59.992Z,98384.59
2022-12-06T14:09:28.533Z,98393.09
2022-12-06T14:11:58.712Z,98385.91
2022-12-06T14:14:25.355Z,98384.59
2022-12-06T14:16:59.238Z,98386.47
2022-12-06T14:19:28.648Z,98382.28
2022-12-06T14:22:02.545Z,98382.03
2022-12-06T14:24:37.072Z,98385.25
2022-12-06T14:27:12.572Z,98390.81
2022-12-06T14:29:39.293Z,98383.94
2022-12-06T14:32:05.933Z,98384.69
2022-12-06T14:34:34.370Z,98377.56
2022-12-06T14:37:02.132Z,98375.81
2022-12-06T14:39:30.414Z,98373.19
2022-12-06T14:42:15.632Z,98372.34
2022-12-06T14:44:47.354Z,98382.34
2022-12-06T14:47:14.778Z,98374.72
2022-12-06T14:49:59.978Z,98373.75
2022-12-06T14:52:28.505Z,98371.34
2022-12-06T14:55:10.224Z,98371.41
2022-12-06T14:57:39.956Z,98375.97
2022-12-06T15:00:27.497Z,98378.66
2022-12-06T15:03:12.738Z,98378.09
2022-12-06T15:05:40.958Z,98375.44
2022-12-06T15:08:25.794Z,98374.66
2022-12-06T15:11:10.857Z,98376.78
2022-12-06T15:13:38.091Z,98379.75
2022-12-06T15:16:07.694Z,98382.97
2022-12-06T15:18:39.081Z,98383.81
2022-12-06T15:21:16.351Z,98387.28
2022-12-06T15:23:49.659Z,98392.09
2022-12-06T15:26:16.453Z,98386.47
2022-12-06T15:28:42.991Z,98386.75
2022-12-06T15:31:22.741Z,98389.41
2022-12-06T15:33:49.615Z,98391.56
2022-12-06T15:36:18.067Z,98388.88
2022-12-06T15:38:44.598Z,98391.56
2022-12-06T15:41:29.248Z,98392.63
2022-12-06T15:43:57.460Z,98390.44
2022-12-06T15:46:25.706Z,98390.47
2022-12-06T15:48:52.814Z,98387.25
2022-12-06T15:51:21.423Z,98386.19
2022-12-06T15:53:48.250Z,98387.28
2022-12-06T15:56:16.023Z,98385.38
2022-12-06T15:58:43.067Z,98382.97
2022-12-06T16:01:32.893Z,98383.25
2022-12-06T16:03:59.454Z,98376.81
2022-12-06T16:06:26.720Z,98382.44
2022-12-06T16:08:53.413Z,98376.28
2022-12-06T16:11:21.446Z,98377.66
2022-12-06T16:13:47.944Z,98368.03
2022-12-06T16:16:16.304Z,98374.69
2022-12-06T16:18:43.180Z,98376.56
2022-12-06T16:21:22.993Z,98374.19
2022-12-06T16:24:16.735Z,98378.97
2022-12-06T16:26:44.828Z,98376.84
2022-12-06T16:29:14.120Z,98380.56
2022-12-06T16:31:42.275Z,98377.59
2022-12-06T16:34:09.217Z,98379.97
2022-12-06T16:36:35.889Z,98365.47
2022-12-06T16:39:04.016Z,98367.34
2022-12-06T16:41:33.383Z,98366.31
2022-12-06T16:44:00.088Z,98376.47
2022-12-06T16:46:34.506Z,98365.47
2022-12-06T16:49:43.496Z,98376.75
2022-12-06T16:51:52.023Z,98372.78
2022-12-06T16:54:18.645Z,98368.50
2022-12-06T16:56:45.184Z,98366.63
2022-12-06T16:59:15.543Z,98368.50
2022-12-06T17:01:52.478Z,98358.91
2022-12-06T17:04:19.014Z,98354.13
2022-12-06T17:06:45.715Z,98356.78
2022-12-06T17:09:12.261Z,98358.09
2022-12-06T17:11:57.339Z,98362.13
2022-12-06T17:14:25.161Z,98359.97
2022-12-06T17:16:51.699Z,98367.69
2022-12-06T17:19:28.000Z,98374.41
2022-12-06T17:21:55.183Z,98370.94
2022-12-06T17:24:21.943Z,98362.63
2022-12-06T17:26:48.439Z,98373.59
2022-12-06T17:29:14.978Z,98360.25
2022-12-06T17:31:42.560Z,98360.25
2022-12-06T17:34:10.274Z,98359.69
2022-12-06T17:36:36.796Z,98362.13
2022-12-06T17:39:06.694Z,98353.56
2022-12-06T17:41:52.354Z,98353.84
2022-12-06T17:44:18.945Z,98345.28
2022-12-06T17:46:45.417Z,98357.84
2022-12-06T17:49:19.353Z,98350.88
2022-12-06T17:51:45.819Z,98355.44
2022-12-06T17:54:12.649Z,98352.00
2022-12-06T17:56:43.349Z,98355.19
2022-12-06T17:59:11.566Z,98350.13
2022-12-06T18:02:06.176Z,98354.66
2022-12-06T18:04:24.515Z,98350.88
2022-12-06T18:06:51.009Z,98353.84
2022-12-06T18:09:17.501Z,98355.72
2022-12-06T18:11:44.014Z,98354.13
2022-12-06T18:14:11.925Z,98357.59
2022-12-06T18:16:39.249Z,98357.03
2022-12-06T18:19:08.859Z,98361.59
2022-12-06T18:21:39.605Z,98359.47
2022-12-06T18:24:21.474Z,98361.91
2022-12-06T18:26:48.990Z,98359.19
2022-12-06T18:29:17.084Z,98352.28
2022-12-06T18:31:43.661Z,98353.06
2022-12-06T18:34:10.268Z,98353.06
2022-12-06T18:36:36.745Z,98357.63
2022-12-06T18:39:06.452Z,98349.06
2022-12-06T18:41:36.321Z,98348.59
2022-12-06T18:44:03.092Z,98357.66
2022-12-06T18:46:29.828Z,98355.75
2022-12-06T18:48:58.012Z,98369.56
2022-12-06T18:51:29.432Z,98360.31
2022-12-06T18:53:56.884Z,98361.81
2022-12-06T18:56:24.290Z,98359.00
2022-12-06T18:58:50.932Z,98350.63
2022-12-06T19:01:19.309Z,98357.53
2022-12-06T19:03:45.941Z,98357.97
2022-12-06T19:06:14.237Z,98351.00
2022-12-06T19:08:42.461Z,98345.78
2022-12-06T19:11:17.644Z,98344.63
2022-12-06T19:13:53.658Z,98337.22
2022-12-06T19:16:21.561Z,98340.03
2022-12-06T19:18:51.205Z,98339.94
2022-12-06T19:21:17.883Z,98332.06
2022-12-06T19:23:44.397Z,98330.00
2022-12-06T19:26:10.865Z,98328.88
2022-12-06T19:28:38.627Z,98329.00
2022-12-06T19:31:07.625Z,98330.47
2022-12-06T19:33:38.238Z,98325.59
2022-12-06T19:36:10.920Z,98327.06
2022-12-06T19:38:37.374Z,98320.56
2022-12-06T19:41:05.097Z,98324.50
2022-12-06T19:43:50.269Z,98317.59
2022-12-06T19:46:21.910Z,98310.84
2022-12-06T19:48:48.798Z,98314.81
2022-12-06T19:51:15.476Z,98310.78
2022-12-06T19:53:42.153Z,98323.66
2022-12-06T19:56:13.327Z,98327.97
2022-12-06T19:58:39.946Z,98320.34
2022-12-06T20:01:10.786Z,98317.44
2022-12-06T20:03:38.127Z,98317.63
2022-12-06T20:06:06.657Z,98321.94
2022-12-06T20:08:33.152Z,98321.44
2022-12-06T20:11:04.089Z,98316.16
2022-12-06T20:13:30.673Z,98314.31
2022-12-06T20:16:01.993Z,98319.94
2022-12-06T20:18:32.059Z,98320.53
2022-12-06T20:20:58.523Z,98322.13
2022-12-06T20:23:25.274Z,98312.25
2022-12-06T20:25:51.733Z,98309.34
2022-12-06T20:28:18.272Z,98309.81
2022-12-06T20:30:44.876Z,98308.19
2022-12-06T20:33:11.441Z,98307.75
2022-12-06T20:35:37.996Z,98304.81
2022-12-06T20:38:04.456Z,98304.59
2022-12-06T20:40:31.699Z,98299.03
2022-12-06T20:42:58.355Z,98295.00
2022-12-06T20:45:24.926Z,98288.56
2022-12-06T20:47:52.422Z,98283.81
2022-12-06T20:50:18.883Z,98283.56
2022-12-06T20:52:45.353Z,98280.34
2022-12-06T20:55:11.851Z,98284.91
2022-12-06T20:57:38.296Z,98283.28
2022-12-06T21:00:07.807Z,98283.59
2022-12-06T21:02:34.632Z,98287.16
2022-12-06T21:05:01.188Z,98277.53
2022-12-06T21:07:27.661Z,98282.53
2022-12-06T21:09:54.141Z,98277.28
2022-12-06T21:12:22.286Z,98271.97
2022-12-06T21:14:48.812Z,98282.13
2022-12-06T21:17:15.334Z,98278.28
2022-12-06T21:19:42.586Z,98272.19
2022-12-06T21:22:09.165Z,98280.06
2022-12-06T21:24:35.661Z,98272.13
2022-12-06T21:27:02.237Z,98268.59
2022-12-06T21:29:31.123Z,98272.56
2022-12-06T21:31:59.556Z,98267.75
2022-12-06T21:34:26.018Z,98263.19
2022-12-06T21:36:52.486Z,98270.94
2022-12-06T21:39:19.220Z,98272.25
2022-12-06T21:41:45.875Z,98272.50
2022-12-06T21:44:12.405Z,98262.91
2022-12-06T21:46:39.045Z,98261.00
2022-12-06T21:49:05.845Z,98261.31
2022-12-06T21:51:32.473Z,98257.84
2022-12-06T21:53:59.015Z,98243.72
2022-12-06T21:56:27.196Z,98254.16
2022-12-06T21:58:54.086Z,98257.91
2022-12-06T22:01:25.082Z,98256.59
2022-12-06T22:03:53.119Z,98254.19
2022-12-06T22:06:19.586Z,98252.31
2022-12-06T22:08:46.248Z,98260.41
2022-12-06T22:11:19.598Z,98253.72
2022-12-06T22:13:47.169Z,98256.66
2022-12-06T22:16:13.812Z,98255.25
2022-12-06T22:18:45.024Z,98253.84
2022-12-06T22:21:19.632Z,98247.16
2022-12-06T22:23:46.653Z,98246.91
2022-12-06T22:26:17.776Z,98243.94
2022-12-06T22:28:44.233Z,98246.13
2022-12-06T22:31:18.687Z,98244.25
2022-12-06T22:33:45.318Z,98242.50
2022-12-06T22:36:12.073Z,98241.16
2022-12-06T22:38:38.609Z,98235.06
2022-12-06T22:41:05.401Z,98230.28
2022-12-06T22:43:31.996Z,98231.34
2022-12-06T22:46:09.879Z,98227.13
2022-12-06T22:48:36.528Z,98224.72
2022-12-06T22:51:12.762Z,98222.53
2022-12-06T22:53:39.785Z,98223.97
2022-12-06T22:56:06.360Z,98221.34
2022-12-06T22:58:32.848Z,98222.97
2022-12-06T23:00:59.372Z,98231.81
2022-12-06T23:03:25.870Z,98224.06
2022-12-06T23:05:59.190Z,98218.50
2022-12-06T23:08:25.800Z,98216.34
2022-12-06T23:11:02.086Z,98216.34
2022-12-06T23:13:28.898Z,98211.53
2022-12-06T23:15:56.989Z,98214.75
2022-12-06T23:18:23.469Z,98207.81
2022-12-06T23:20:49.954Z,98201.94
2022-12-06T23:23:16.411Z,98203.03
2022-12-06T23:25:42.840Z,98195.28
2022-12-06T23:28:09.286Z,98194.75
2022-12-06T23:30:35.730Z,98189.41
2022-12-06T23:33:02.169Z,98182.78
2022-12-06T23:35:28.678Z,98186.78
2022-12-06T23:37:55.129Z,98183.84
2022-12-06T23:40:21.570Z,98185.22
2022-12-06T23:42:48.022Z,98183.63
2022-12-06T23:45:14.541Z,98185.22
2022-12-06T23:47:41.024Z,98189.22
2022-12-06T23:50:07.962Z,98182.31
2022-12-06T23:52:34.477Z,98172.44
2022-12-06T23:55:01.181Z,98177.53
2022-12-06T23:57:27.775Z,98169.53
2022-12-06T23:59:54.218Z,98161.25
